Time;durP1;ratioP1;P1;durP2;ratioP2;P2;SDS_P1;SDS_P2;PMS_P1;PMS_P2;Temp;Humidity;BMP_temperature;BMP_pressure;BME280_temperature;BME280_humidity;BME280_pressure;Samples;Min_cycle;Max_cycle;Signal;HPM_P1;HPM_P2
2023/05/25 00:02:25;;;;;;;14.63;6.05;;;9.90;99.90;;;;;;12442422;28;20049;-39
2023/05/25 00:08:28;;;;;;;11.02;5.93;;;9.80;99.90;;;;;;12443514;28;20514;-38
2023/05/25 00:14:30;;;;;;;10.20;5.60;;;9.80;99.90;;;;;;12429830;28;20454;-38
2023/05/25 00:20:32;;;;;;;12.23;6.30;;;9.80;99.90;;;;;;12457757;28;20374;-38
2023/05/25 00:26:34;;;;;;;11.77;6.35;;;9.80;99.90;;;;;;12443218;28;20506;-38
2023/05/25 00:32:36;;;;;;;10.18;6.00;;;9.90;99.90;;;;;;12447955;28;20054;-39
2023/05/25 00:38:38;;;;;;;9.38;5.60;;;9.80;99.90;;;;;;12441855;28;20449;-39
2023/05/25 00:44:41;;;;;;;13.23;5.25;;;9.80;99.90;;;;;;12439305;28;20080;-38
2023/05/25 00:50:44;;;;;;;12.55;6.10;;;9.70;99.90;;;;;;12445321;28;20050;-39
2023/05/25 00:56:56;;;;;;;13.15;6.63;;;9.60;99.90;;;;;;12451469;28;20053;-38
2023/05/25 01:02:59;;;;;;;12.93;6.72;;;9.50;99.90;;;;;;12442989;28;20041;-39
2023/05/25 01:09:04;;;;;;;12.63;6.10;;;9.30;99.90;;;;;;12441031;28;20597;-38
2023/05/25 01:15:07;;;;;;;18.73;7.43;;;9.30;99.90;;;;;;12434747;28;20049;-38
2023/05/25 01:21:36;;;;;;;10.00;5.83;;;9.20;99.90;;;;;;12446866;28;20046;-39
2023/05/25 01:27:58;;;;;;;13.93;5.93;;;9.10;99.90;;;;;;12436056;28;20624;-38
2023/05/25 01:34:01;;;;;;;14.93;6.13;;;9.00;99.90;;;;;;12446993;28;20419;-38
2023/05/25 01:40:07;;;;;;;15.63;5.68;;;9.20;99.90;;;;;;12441595;28;20136;-38
2023/05/25 01:46:35;;;;;;;10.45;5.15;;;9.40;99.90;;;;;;12436467;28;20061;-39
2023/05/25 01:52:43;;;;;;;11.93;5.57;;;9.30;99.90;;;;;;12447416;28;20050;-38
2023/05/25 01:58:47;;;;;;;7.05;4.57;;;9.20;99.90;;;;;;12443811;28;20050;-39
2023/05/25 02:04:49;;;;;;;12.18;5.57;;;9.30;99.90;;;;;;12446555;28;20073;-39
2023/05/25 02:10:51;;;;;;;7.57;4.80;;;9.30;99.90;;;;;;12422393;28;20410;-39
2023/05/25 02:16:53;;;;;;;11.10;5.38;;;9.30;99.90;;;;;;12439500;28;20471;-38
2023/05/25 02:22:55;;;;;;;13.63;6.07;;;9.30;99.90;;;;;;12438571;28;20080;-38
2023/05/25 02:28:57;;;;;;;11.30;6.13;;;9.20;99.90;;;;;;12443778;28;20088;-39
2023/05/25 02:34:58;;;;;;;9.73;5.10;;;9.10;99.90;;;;;;12438950;28;20088;-38
2023/05/25 02:41:00;;;;;;;10.32;5.63;;;9.10;99.90;;;;;;12435625;28;20441;-38
2023/05/25 02:47:02;;;;;;;17.58;6.65;;;9.20;99.90;;;;;;12442353;28;20081;-38
2023/05/25 02:53:05;;;;;;;16.10;6.15;;;9.10;99.90;;;;;;12441482;28;20053;-38
2023/05/25 02:59:07;;;;;;;13.60;7.00;;;9.20;99.90;;;;;;12442205;28;20057;-38
2023/05/25 03:05:10;;;;;;;10.40;6.05;;;9.00;99.90;;;;;;12438923;28;20501;-39
2023/05/25 03:11:12;;;;;;;13.95;6.18;;;9.10;99.90;;;;;;12418871;28;20091;-39
2023/05/25 03:17:13;;;;;;;13.85;6.25;;;9.10;99.90;;;;;;12418916;28;20046;-37
2023/05/25 03:23:15;;;;;;;12.05;5.72;;;9.20;99.90;;;;;;12404057;28;20057;-39
2023/05/25 03:29:17;;;;;;;9.30;5.88;;;9.30;99.90;;;;;;12416734;28;20088;-39
2023/05/25 03:35:19;;;;;;;12.05;6.32;;;9.30;99.90;;;;;;12426018;28;21374;-38
2023/05/25 03:41:21;;;;;;;12.95;6.50;;;9.30;99.90;;;;;;12408560;28;20081;-38
2023/05/25 03:47:23;;;;;;;8.65;5.65;;;9.30;99.90;;;;;;12428241;28;20080;-39
2023/05/25 03:53:25;;;;;;;13.30;6.63;;;9.50;99.90;;;;;;12428036;28;20097;-38
2023/05/25 03:59:27;;;;;;;12.68;7.50;;;9.50;99.90;;;;;;12446666;28;20142;-38
2023/05/25 04:05:28;;;;;;;18.67;8.90;;;9.50;99.90;;;;;;12415131;28;20053;-38
2023/05/25 04:11:30;;;;;;;18.20;8.77;;;9.40;99.90;;;;;;12426395;28;20539;-37
2023/05/25 04:17:33;;;;;;;14.25;8.75;;;9.40;99.90;;;;;;12441382;28;20049;-36
2023/05/25 04:23:37;;;;;;;19.30;9.77;;;9.30;99.90;;;;;;12440707;28;20493;-36
2023/05/25 04:29:40;;;;;;;16.88;9.30;;;9.50;99.90;;;;;;12441073;28;20053;-37
2023/05/25 04:35:42;;;;;;;18.45;9.25;;;9.50;99.90;;;;;;12433186;28;20047;-36
2023/05/25 04:41:47;;;;;;;13.98;9.07;;;9.40;99.90;;;;;;12459041;28;20081;-36
2023/05/25 04:47:48;;;;;;;15.70;8.65;;;9.60;99.90;;;;;;12441342;28;20041;-36
2023/05/25 04:53:50;;;;;;;13.23;7.40;;;9.70;99.90;;;;;;12439935;28;20092;-36
2023/05/25 04:59:52;;;;;;;16.13;9.23;;;9.80;99.90;;;;;;12441637;28;20054;-37
2023/05/25 05:05:55;;;;;;;14.85;8.27;;;9.70;99.90;;;;;;12432049;28;20069;-36
2023/05/25 05:11:57;;;;;;;30.38;10.77;;;9.80;99.90;;;;;;12437961;28;20450;-37
2023/05/25 05:17:59;;;;;;;23.35;11.25;;;9.80;99.90;;;;;;12436608;28;20049;-37
2023/05/25 05:24:01;;;;;;;10.93;7.13;;;9.90;99.90;;;;;;12469666;28;20042;-36
2023/05/25 05:30:03;;;;;;;15.40;8.25;;;10.00;99.90;;;;;;12440599;28;20097;-36
2023/05/25 05:36:05;;;;;;;20.35;9.93;;;9.90;99.90;;;;;;12439903;28;20080;-37
2023/05/25 05:42:08;;;;;;;16.20;9.43;;;10.00;99.90;;;;;;12436125;28;20102;-37
2023/05/25 05:48:10;;;;;;;18.77;10.23;;;10.00;99.90;;;;;;12448243;28;20046;-36
2023/05/25 05:54:12;;;;;;;17.52;9.38;;;9.80;99.90;;;;;;12440689;28;20510;-36
2023/05/25 06:00:15;;;;;;;20.63;9.80;;;9.80;99.90;;;;;;12449531;28;20096;-36
2023/05/25 06:06:17;;;;;;;19.80;9.95;;;9.90;99.90;;;;;;12430147;28;20054;-36
2023/05/25 06:12:19;;;;;;;18.25;10.27;;;9.80;99.90;;;;;;12440274;28;20049;-37
2023/05/25 06:18:20;;;;;;;16.02;9.18;;;9.90;99.90;;;;;;12424348;28;20103;-37
2023/05/25 06:24:22;;;;;;;11.02;7.80;;;10.00;99.90;;;;;;12440494;28;20498;-36
2023/05/25 06:30:24;;;;;;;15.18;8.15;;;10.20;99.90;;;;;;12434724;28;20046;-37
2023/05/25 06:36:26;;;;;;;15.25;8.90;;;10.40;99.90;;;;;;12437161;28;21490;-36
2023/05/25 06:42:28;;;;;;;14.15;9.52;;;10.60;99.90;;;;;;12434616;28;20482;-36
2023/05/25 06:48:30;;;;;;;17.70;8.63;;;10.80;99.90;;;;;;12434526;28;20045;-37
2023/05/25 06:54:32;;;;;;;19.67;7.88;;;10.00;99.90;;;;;;12432724;28;20046;-36
2023/05/25 07:00:34;;;;;;;22.08;8.55;;;9.80;99.90;;;;;;12433851;28;20038;-37
2023/05/25 07:06:36;;;;;;;14.88;7.78;;;10.10;99.90;;;;;;12428831;28;20397;-37
2023/05/25 07:12:38;;;;;;;16.35;8.30;;;10.20;99.90;;;;;;12425272;28;20053;-39
2023/05/25 07:18:40;;;;;;;20.40;9.32;;;10.30;99.90;;;;;;12439354;28;20186;-39
2023/05/25 07:24:42;;;;;;;20.67;9.00;;;10.40;99.90;;;;;;12434656;28;20475;-38
2023/05/25 07:30:44;;;;;;;17.63;8.55;;;10.60;99.90;;;;;;12436778;28;20046;-39
2023/05/25 07:36:46;;;;;;;16.77;8.88;;;10.50;99.90;;;;;;12437877;28;20060;-39
2023/05/25 07:42:48;;;;;;;17.58;7.88;;;10.60;99.90;;;;;;12442250;28;20091;-38
2023/05/25 07:48:50;;;;;;;19.13;8.13;;;10.50;99.90;;;;;;12441051;28;20053;-39
2023/05/25 07:54:52;;;;;;;14.80;7.80;;;10.50;99.90;;;;;;12442511;28;20417;-39
2023/05/25 08:00:55;;;;;;;20.45;8.90;;;11.20;99.90;;;;;;12443873;28;20056;-39
2023/05/25 08:06:57;;;;;;;15.95;9.10;;;11.10;99.90;;;;;;12436316;28;20207;-39
2023/05/25 08:12:58;;;;;;;18.58;8.20;;;11.40;99.90;;;;;;12447219;28;20077;-39
2023/05/25 08:19:00;;;;;;;11.77;7.43;;;11.40;99.90;;;;;;12440310;28;20050;-39
2023/05/25 08:25:03;;;;;;;14.88;7.85;;;11.60;99.90;;;;;;12437385;28;20043;-39
2023/05/25 08:31:07;;;;;;;16.33;8.07;;;11.40;99.90;;;;;;12446808;28;20089;-39
2023/05/25 08:37:09;;;;;;;19.30;8.30;;;11.20;99.90;;;;;;12444937;28;20107;-40
2023/05/25 08:43:11;;;;;;;14.40;7.47;;;11.40;99.90;;;;;;12442733;28;20536;-40
2023/05/25 08:49:14;;;;;;;16.83;8.15;;;11.60;99.90;;;;;;12436552;28;20132;-38
2023/05/25 08:55:18;;;;;;;15.35;8.32;;;11.80;99.90;;;;;;12439533;28;20038;-38
2023/05/25 09:01:22;;;;;;;14.23;7.88;;;11.70;99.90;;;;;;12435856;28;20072;-39
2023/05/25 09:07:25;;;;;;;15.45;8.82;;;12.00;99.90;;;;;;12434966;28;20095;-39
2023/05/25 09:13:27;;;;;;;17.98;9.85;;;11.60;99.90;;;;;;12432496;28;20076;-39
2023/05/25 09:19:29;;;;;;;21.13;10.27;;;11.90;99.90;;;;;;12433426;28;20081;-39
2023/05/25 09:25:32;;;;;;;21.23;11.13;;;11.90;99.90;;;;;;12434122;28;20477;-39
2023/05/25 09:31:35;;;;;;;22.90;13.48;;;12.10;99.90;;;;;;12432880;28;20609;-39
2023/05/25 09:37:37;;;;;;;26.95;14.55;;;12.00;99.90;;;;;;12417325;28;20050;-39
2023/05/25 09:43:39;;;;;;;26.58;15.07;;;12.10;99.90;;;;;;12422927;28;20038;-39
2023/05/25 09:49:56;;;;;;;24.75;16.15;;;12.20;99.90;;;;;;12438679;28;20111;-39
2023/05/25 09:55:59;;;;;;;20.83;15.13;;;12.40;99.90;;;;;;12436679;28;20076;-39
2023/05/25 10:02:05;;;;;;;31.33;16.08;;;12.40;99.90;;;;;;12430594;28;20042;-39
2023/05/25 10:08:09;;;;;;;19.90;12.40;;;12.30;99.90;;;;;;12426723;28;20422;-39
2023/05/25 10:14:16;;;;;;;19.83;12.10;;;12.50;99.90;;;;;;12434983;28;20057;-39
2023/05/25 10:20:22;;;;;;;18.83;11.60;;;12.70;99.90;;;;;;12434816;28;20331;-39
2023/05/25 10:26:32;;;;;;;21.05;10.98;;;13.00;99.90;;;;;;12433727;28;20073;-38
2023/05/25 10:32:36;;;;;;;19.77;11.02;;;13.10;99.90;;;;;;12435737;28;20045;-39
2023/05/25 10:38:39;;;;;;;19.15;12.57;;;13.20;99.90;;;;;;12434537;28;20049;-41
2023/05/25 10:44:42;;;;;;;19.25;11.45;;;12.90;99.90;;;;;;12431015;28;20188;-39
2023/05/25 10:50:49;;;;;;;18.42;12.45;;;13.00;99.90;;;;;;12425244;28;20506;-39
2023/05/25 10:57:30;;;;;;;20.50;13.43;;;12.70;99.90;;;;;;12434126;28;20056;-39
2023/05/25 11:03:55;;;;;;;17.83;12.65;;;12.70;99.90;;;;;;12418230;28;20042;-39
2023/05/25 11:09:58;;;;;;;21.70;11.98;;;12.40;99.90;;;;;;12433204;28;20150;-38
2023/05/25 11:16:19;;;;;;;18.10;10.70;;;12.80;99.90;;;;;;12432293;28;20283;-39
2023/05/25 11:22:41;;;;;;;13.00;8.70;;;13.10;99.90;;;;;;12435121;28;20544;-39
2023/05/25 11:28:45;;;;;;;20.92;8.55;;;13.20;99.90;;;;;;12441094;28;20045;-39
2023/05/25 11:34:48;;;;;;;17.50;8.45;;;13.40;99.90;;;;;;12431752;28;20072;-39
2023/05/25 11:40:50;;;;;;;16.40;7.65;;;13.70;99.90;;;;;;12429175;28;20574;-39
2023/05/25 11:46:56;;;;;;;11.85;6.88;;;13.80;99.90;;;;;;12435247;28;20046;-39
2023/05/25 11:52:58;;;;;;;15.77;7.55;;;13.60;99.90;;;;;;12437062;28;20058;-39
2023/05/25 11:59:00;;;;;;;12.68;7.35;;;13.60;99.90;;;;;;12435907;28;20081;-39
2023/05/25 12:05:02;;;;;;;15.57;7.53;;;13.40;99.90;;;;;;12435768;28;20057;-38
2023/05/25 12:11:04;;;;;;;9.77;6.75;;;13.70;99.90;;;;;;12426452;28;20054;-39
2023/05/25 12:17:06;;;;;;;11.18;6.25;;;13.60;99.90;;;;;;12438040;28;20375;-39
2023/05/25 12:23:09;;;;;;;13.80;6.03;;;14.10;99.90;;;;;;12436046;28;20529;-39
2023/05/25 12:29:10;;;;;;;13.57;6.15;;;14.50;99.90;;;;;;12451528;28;20403;-39
2023/05/25 12:35:12;;;;;;;12.10;5.07;;;14.20;99.90;;;;;;12450711;28;20049;-39
2023/05/25 12:41:16;;;;;;;8.43;4.00;;;14.20;99.90;;;;;;12442827;28;20046;-39
2023/05/25 12:47:21;;;;;;;10.93;3.95;;;14.20;99.90;;;;;;12443266;28;20054;-38
2023/05/25 12:53:24;;;;;;;13.07;4.03;;;14.50;99.90;;;;;;12451791;28;20053;-38
2023/05/25 12:59:26;;;;;;;10.00;3.83;;;15.10;99.90;;;;;;12445218;28;20062;-39
2023/05/25 13:05:32;;;;;;;11.10;3.53;;;15.20;99.90;;;;;;12442258;28;20049;-39
2023/05/25 13:11:34;;;;;;;10.90;3.15;;;14.80;99.90;;;;;;12409082;28;20088;-39
2023/05/25 13:17:36;;;;;;;11.70;3.25;;;14.60;99.90;;;;;;12428242;28;20075;-39
2023/05/25 13:23:38;;;;;;;11.02;4.03;;;14.60;99.90;;;;;;12425762;28;20045;-40
2023/05/25 13:29:40;;;;;;;15.05;4.20;;;14.40;99.90;;;;;;12435286;28;20414;-40
2023/05/25 13:35:56;;;;;;;16.02;4.40;;;14.50;99.90;;;;;;12425211;28;20056;-40
2023/05/25 13:42:01;;;;;;;16.27;4.25;;;14.40;99.90;;;;;;12422591;28;20494;-40
2023/05/25 13:48:03;;;;;;;10.98;3.35;;;14.30;99.90;;;;;;12428969;28;20069;-40
2023/05/25 13:54:05;;;;;;;18.35;3.80;;;14.50;99.90;;;;;;12428963;28;20056;-40
2023/05/25 14:00:08;;;;;;;16.98;4.45;;;14.70;99.90;;;;;;12441812;28;20555;-38
2023/05/25 14:06:10;;;;;;;17.05;3.83;;;14.70;99.90;;;;;;12431341;28;20053;-40
2023/05/25 14:12:15;;;;;;;15.35;3.80;;;14.90;99.90;;;;;;12424715;28;20053;-37
2023/05/25 14:18:17;;;;;;;13.75;3.47;;;15.50;99.90;;;;;;12439712;28;20060;-37
2023/05/25 14:24:19;;;;;;;16.50;3.33;;;15.50;99.90;;;;;;12441589;28;20153;-37
2023/05/25 14:30:22;;;;;;;16.20;3.50;;;15.50;99.90;;;;;;12444513;28;20057;-38
2023/05/25 14:36:24;;;;;;;13.35;3.75;;;16.10;99.90;;;;;;12436929;28;20053;-37
2023/05/25 14:42:26;;;;;;;20.13;3.72;;;16.30;99.90;;;;;;12437096;28;20398;-38
2023/05/25 14:48:28;;;;;;;13.30;3.63;;;16.30;99.90;;;;;;12441312;28;20418;-37
2023/05/25 14:54:30;;;;;;;11.35;3.53;;;16.60;99.90;;;;;;12450334;28;20050;-37
2023/05/25 15:00:32;;;;;;;14.98;3.55;;;16.60;99.90;;;;;;12444664;28;20053;-37
2023/05/25 15:06:35;;;;;;;12.88;3.38;;;16.70;99.90;;;;;;12433600;28;20048;-37
2023/05/25 15:12:37;;;;;;;18.25;4.35;;;16.50;99.90;;;;;;12440027;28;20069;-38
2023/05/25 15:18:39;;;;;;;17.65;3.78;;;15.50;99.90;;;;;;12438231;28;20049;-37
2023/05/25 15:24:41;;;;;;;20.02;4.53;;;15.10;99.90;;;;;;12438749;28;20433;-37
2023/05/25 15:30:44;;;;;;;13.82;3.35;;;15.00;99.90;;;;;;12442025;28;20054;-37
2023/05/25 15:36:46;;;;;;;17.27;4.00;;;15.30;99.90;;;;;;12443670;28;20054;-37
2023/05/25 15:42:49;;;;;;;15.73;4.10;;;15.90;99.90;;;;;;12438030;28;20052;-38
2023/05/25 15:48:51;;;;;;;17.75;4.22;;;16.60;99.90;;;;;;12441262;28;20369;-37
2023/05/25 15:54:53;;;;;;;17.40;3.67;;;16.90;99.90;;;;;;12454332;28;20065;-38
2023/05/25 16:00:55;;;;;;;19.80;3.88;;;17.20;99.90;;;;;;12442055;28;20042;-37
2023/05/25 16:06:57;;;;;;;17.17;4.07;;;17.20;99.90;;;;;;12440524;28;20081;-38
2023/05/25 16:13:02;;;;;;;12.73;3.10;;;17.50;99.90;;;;;;12443312;28;20162;-38
2023/05/25 16:19:04;;;;;;;17.80;4.40;;;17.70;99.90;;;;;;12453922;28;20050;-38
2023/05/25 16:25:06;;;;;;;17.95;4.03;;;17.90;99.90;;;;;;12442253;28;20042;-37
2023/05/25 16:31:11;;;;;;;23.80;4.88;;;18.10;99.90;;;;;;12443461;28;20045;-38
2023/05/25 16:37:12;;;;;;;16.02;4.05;;;17.80;99.90;;;;;;12444129;28;20064;-38
2023/05/25 16:43:14;;;;;;;21.60;5.10;;;17.20;99.90;;;;;;12442796;28;20046;-38
2023/05/25 16:49:16;;;;;;;18.85;4.18;;;17.00;99.90;;;;;;12441477;28;20045;-38
2023/05/25 16:55:18;;;;;;;20.42;4.43;;;16.00;99.90;;;;;;12444098;28;20053;-38
2023/05/25 17:01:20;;;;;;;21.70;4.65;;;15.80;99.90;;;;;;12450758;28;20084;-38
2023/05/25 17:07:22;;;;;;;15.77;4.20;;;16.50;99.90;;;;;;12435256;28;20049;-39
2023/05/25 17:13:26;;;;;;;21.63;5.93;;;16.60;99.90;;;;;;12432220;28;20192;-40
2023/05/25 17:19:28;;;;;;;19.70;4.38;;;17.00;99.90;;;;;;12427975;28;20573;-40
2023/05/25 17:25:30;;;;;;;18.30;4.00;;;17.40;99.90;;;;;;12435961;28;20061;-41
2023/05/25 17:31:34;;;;;;;23.38;4.68;;;17.70;99.90;;;;;;12432132;28;20581;-40
2023/05/25 17:37:37;;;;;;;17.65;4.05;;;17.70;99.90;;;;;;12431024;28;20061;-40
2023/05/25 17:43:39;;;;;;;19.83;4.22;;;17.70;99.90;;;;;;12429826;28;20046;-40
2023/05/25 17:49:41;;;;;;;21.42;4.65;;;17.90;99.90;;;;;;12440397;28;20481;-40
2023/05/25 17:55:43;;;;;;;20.52;4.50;;;18.00;99.90;;;;;;12426517;28;20046;-41
2023/05/25 18:01:45;;;;;;;15.15;4.22;;;17.80;99.90;;;;;;12423182;28;20049;-40
2023/05/25 18:07:48;;;;;;;18.15;4.18;;;17.40;99.90;;;;;;12428730;28;20042;-40
2023/05/25 18:13:51;;;;;;;25.73;5.38;;;16.40;99.90;;;;;;12438481;28;20042;-39
2023/05/25 18:19:53;;;;;;;18.15;4.55;;;15.90;99.90;;;;;;12442943;28;20519;-39
2023/05/25 18:25:55;;;;;;;28.60;4.90;;;15.40;99.90;;;;;;12439260;28;20073;-40
2023/05/25 18:31:57;;;;;;;22.73;5.63;;;14.90;99.90;;;;;;12442411;28;20038;-39
2023/05/25 18:37:59;;;;;;;26.70;5.22;;;14.70;99.90;;;;;;12437028;28;20056;-39
2023/05/25 18:44:01;;;;;;;28.90;5.63;;;14.50;99.90;;;;;;12441236;28;20049;-39
2023/05/25 18:50:03;;;;;;;26.98;5.65;;;14.30;99.90;;;;;;12440492;28;20425;-39
2023/05/25 18:56:05;;;;;;;19.73;4.88;;;14.20;99.90;;;;;;12446566;28;20054;-40
2023/05/25 19:02:07;;;;;;;26.33;5.30;;;14.10;99.90;;;;;;12439447;28;20391;-39
2023/05/25 19:08:09;;;;;;;28.05;5.22;;;13.80;99.90;;;;;;12436227;28;20058;-39
2023/05/25 19:14:11;;;;;;;21.70;4.32;;;13.70;99.90;;;;;;12435050;28;20053;-39
2023/05/25 19:20:15;;;;;;;25.45;4.10;;;13.40;99.90;;;;;;12465987;28;20049;-39
2023/05/25 19:26:17;;;;;;;24.25;5.18;;;13.20;99.90;;;;;;12440663;28;20049;-38
2023/05/25 19:32:20;;;;;;;25.92;4.75;;;13.20;99.90;;;;;;12441358;28;20411;-38
2023/05/25 19:38:22;;;;;;;21.20;4.88;;;13.10;99.90;;;;;;12452458;28;20046;-39
2023/05/25 19:44:30;;;;;;;21.17;5.78;;;13.10;99.90;;;;;;12446025;28;20049;-38
2023/05/25 19:50:34;;;;;;;20.30;4.07;;;12.90;99.90;;;;;;12444322;28;20050;-39
2023/05/25 19:56:36;;;;;;;20.92;4.53;;;12.80;99.90;;;;;;12454258;28;20057;-39
2023/05/25 20:02:38;;;;;;;19.23;4.22;;;12.80;99.90;;;;;;12444926;28;20074;-40
2023/05/25 20:08:40;;;;;;;30.52;5.10;;;13.00;99.90;;;;;;12443801;28;20610;-39
2023/05/25 20:14:42;;;;;;;25.70;4.28;;;12.80;99.90;;;;;;12431901;28;20502;-38
2023/05/25 20:20:44;;;;;;;32.17;4.70;;;12.70;99.90;;;;;;12425866;28;20133;-38
2023/05/25 20:26:46;;;;;;;24.45;4.30;;;12.30;99.90;;;;;;12434284;28;20057;-38
2023/05/25 20:32:48;;;;;;;20.92;3.45;;;12.20;99.90;;;;;;12434518;28;20085;-39
2023/05/25 20:38:50;;;;;;;21.90;4.75;;;12.10;99.90;;;;;;12423168;28;20699;-39
2023/05/25 20:44:52;;;;;;;28.52;5.18;;;12.10;99.90;;;;;;12439653;28;20049;-39
2023/05/25 20:50:54;;;;;;;22.17;4.00;;;11.80;99.90;;;;;;12427860;28;20034;-38
2023/05/25 20:56:56;;;;;;;23.52;4.35;;;11.80;99.90;;;;;;12436310;28;20063;-38
2023/05/25 21:02:58;;;;;;;19.27;3.30;;;11.70;99.90;;;;;;12427301;28;20069;-38
2023/05/25 21:09:00;;;;;;;26.63;4.95;;;11.80;99.90;;;;;;12432426;28;20052;-38
2023/05/25 21:15:02;;;;;;;21.48;4.07;;;11.50;99.90;;;;;;12439029;28;20046;-38
2023/05/25 21:21:04;;;;;;;19.70;3.67;;;11.50;99.90;;;;;;12445652;28;20057;-38
2023/05/25 21:27:06;;;;;;;24.58;3.95;;;11.50;99.90;;;;;;12443977;28;20172;-38
2023/05/25 21:33:08;;;;;;;23.73;3.85;;;11.40;99.90;;;;;;12460037;28;20497;-38
2023/05/25 21:39:10;;;;;;;21.23;4.47;;;11.30;99.90;;;;;;12446267;28;20164;-38
2023/05/25 21:45:12;;;;;;;19.02;3.72;;;11.10;99.90;;;;;;12442697;28;20410;-39
2023/05/25 21:51:15;;;;;;;21.95;3.83;;;11.20;99.90;;;;;;12447782;28;20053;-38
2023/05/25 21:57:17;;;;;;;21.17;3.53;;;11.10;99.90;;;;;;12440797;28;20421;-38
2023/05/25 22:03:19;;;;;;;18.13;3.83;;;11.10;99.90;;;;;;12439818;28;20040;-37
2023/05/25 22:09:22;;;;;;;16.67;3.42;;;10.80;99.90;;;;;;12438502;28;20050;-38
2023/05/25 22:15:24;;;;;;;23.13;4.13;;;11.00;99.90;;;;;;12449183;28;20084;-38
2023/05/25 22:21:26;;;;;;;21.58;3.90;;;11.10;99.90;;;;;;12440154;28;20410;-37
2023/05/25 22:27:28;;;;;;;30.33;4.07;;;10.90;99.90;;;;;;12441933;28;20049;-38
2023/05/25 22:33:30;;;;;;;20.58;3.40;;;10.80;99.90;;;;;;12443822;28;20060;-38
2023/05/25 22:39:31;;;;;;;23.20;4.68;;;10.80;99.90;;;;;;12446311;28;20041;-38
2023/05/25 22:45:33;;;;;;;21.13;4.30;;;10.70;99.90;;;;;;12446013;28;20112;-38
2023/05/25 22:51:35;;;;;;;23.23;3.50;;;10.50;99.90;;;;;;12460642;28;20061;-38
2023/05/25 22:57:38;;;;;;;18.13;3.47;;;10.60;99.90;;;;;;12439891;28;20379;-38
2023/05/25 23:03:40;;;;;;;23.13;3.97;;;10.60;99.90;;;;;;12433925;28;20058;-38
2023/05/25 23:09:42;;;;;;;28.83;4.88;;;10.50;99.90;;;;;;12433144;28;20041;-38
2023/05/25 23:15:46;;;;;;;29.67;4.10;;;10.20;99.90;;;;;;12443259;28;20068;-38
2023/05/25 23:21:48;;;;;;;19.20;4.30;;;10.10;99.90;;;;;;12446582;28;20053;-38
2023/05/25 23:27:50;;;;;;;26.58;4.72;;;10.10;99.90;;;;;;12441258;28;20331;-38
2023/05/25 23:33:52;;;;;;;28.67;4.00;;;10.00;99.90;;;;;;12432983;28;20162;-39
2023/05/25 23:39:54;;;;;;;27.83;4.35;;;10.00;99.90;;;;;;12438611;28;20128;-38
2023/05/25 23:45:56;;;;;;;27.48;4.32;;;10.00;99.90;;;;;;12439382;28;20038;-38
2023/05/25 23:51:58;;;;;;;27.25;4.38;;;9.90;99.90;;;;;;12443652;28;20038;-38
2023/05/25 23:58:00;;;;;;;29.08;4.40;;;10.10;99.90;;;;;;12441902;28;20520;-38
